createdAt,value
2018-12-16T00:00:45.447Z,16.43
2018-12-16T00:03:12.978Z,15.77
2018-12-16T00:05:40.516Z,16.53
2018-12-16T00:08:07.994Z,16.57
2018-12-16T00:10:35.542Z,16.27
2018-12-16T00:13:04.558Z,17.00
2018-12-16T00:15:32.041Z,16.50
2018-12-16T00:17:59.507Z,16.03
2018-12-16T00:20:26.963Z,16.60
2018-12-16T00:22:54.451Z,15.80
2018-12-16T00:25:21.967Z,16.70
2018-12-16T00:27:49.447Z,15.87
2018-12-16T00:30:16.928Z,15.30
2018-12-16T00:32:44.375Z,15.37
2018-12-16T00:35:11.852Z,15.83
2018-12-16T00:37:39.323Z,15.70
2018-12-16T00:40:07.236Z,16.50
2018-12-16T00:42:34.705Z,16.23
2018-12-16T00:45:02.266Z,15.67
2018-12-16T00:47:29.732Z,15.67
2018-12-16T00:49:57.196Z,16.93
2018-12-16T00:52:24.686Z,15.83
2018-12-16T00:54:52.168Z,16.87
2018-12-16T00:57:19.678Z,15.73
2018-12-16T00:59:47.143Z,15.97
2018-12-16T01:02:20.428Z,16.77
2018-12-16T01:04:47.956Z,17.03
2018-12-16T01:07:15.435Z,16.43
2018-12-16T01:09:42.909Z,16.73
2018-12-16T01:12:10.415Z,16.57
2018-12-16T01:14:37.889Z,16.83
2018-12-16T01:17:05.375Z,16.63
2018-12-16T01:19:32.832Z,17.00
2018-12-16T01:22:00.309Z,18.20
2018-12-16T01:24:27.783Z,16.80
2018-12-16T01:26:55.258Z,17.43
2018-12-16T01:29:22.740Z,17.67
2018-12-16T01:31:50.194Z,17.23
2018-12-16T01:34:17.668Z,18.97
2018-12-16T01:36:45.143Z,18.17
2018-12-16T01:39:12.599Z,17.93
2018-12-16T01:41:40.095Z,18.37
2018-12-16T01:44:07.545Z,18.60
2018-12-16T01:46:34.996Z,18.87
2018-12-16T01:49:02.479Z,18.77
2018-12-16T01:51:30.021Z,18.97
2018-12-16T01:53:57.475Z,19.50
2018-12-16T01:56:24.968Z,19.43
2018-12-16T01:58:52.494Z,19.97
2018-12-16T02:01:19.983Z,19.37
2018-12-16T02:03:47.427Z,18.97
2018-12-16T02:06:14.927Z,20.00
2018-12-16T02:08:42.384Z,20.13
2018-12-16T02:11:09.849Z,20.23
2018-12-16T02:13:37.350Z,19.30
2018-12-16T02:16:05.023Z,19.10
2018-12-16T02:18:32.547Z,19.83
2018-12-16T02:21:00.028Z,20.63
2018-12-16T02:23:27.534Z,19.33
2018-12-16T02:25:54.997Z,20.23
2018-12-16T02:28:22.477Z,21.80
2018-12-16T02:30:49.956Z,21.27
2018-12-16T02:33:17.531Z,20.13
2018-12-16T02:35:45.055Z,18.90
2018-12-16T02:38:12.513Z,21.70
2018-12-16T02:40:39.997Z,20.83
2018-12-16T02:43:07.489Z,20.50
2018-12-16T02:45:34.977Z,21.57
2018-12-16T02:48:02.492Z,21.23
2018-12-16T02:50:29.947Z,22.03
2018-12-16T02:53:04.298Z,21.50
2018-12-16T02:55:26.905Z,20.57
2018-12-16T02:57:54.419Z,20.87
2018-12-16T03:00:21.929Z,21.67
2018-12-16T03:02:49.399Z,21.97
2018-12-16T03:05:16.860Z,21.87
2018-12-16T03:07:44.311Z,22.00
2018-12-16T03:10:11.799Z,22.20
2018-12-16T03:12:39.275Z,21.97
2018-12-16T03:15:07.059Z,22.23
2018-12-16T03:17:34.528Z,22.40
2018-12-16T03:20:02.283Z,22.80
2018-12-16T03:22:29.757Z,22.83
2018-12-16T03:24:57.296Z,22.80
2018-12-16T03:27:24.855Z,22.93
2018-12-16T03:29:52.332Z,24.07
2018-12-16T03:32:19.924Z,23.87
2018-12-16T03:34:47.469Z,24.30
2018-12-16T03:37:14.910Z,24.57
2018-12-16T03:39:42.388Z,23.87
2018-12-16T03:42:10.093Z,24.13
2018-12-16T03:44:37.598Z,23.90
2018-12-16T03:47:05.074Z,23.97
2018-12-16T03:49:32.527Z,24.13
2018-12-16T03:52:00.000Z,24.90
2018-12-16T03:54:27.484Z,25.13
2018-12-16T03:56:54.949Z,24.60
2018-12-16T03:59:22.407Z,23.87
2018-12-16T04:01:56.971Z,24.77
2018-12-16T04:04:25.360Z,24.20
2018-12-16T04:06:53.028Z,24.70
2018-12-16T04:09:20.504Z,25.87
2018-12-16T04:11:47.970Z,24.60
2018-12-16T04:14:15.437Z,23.70
2018-12-16T04:16:42.918Z,23.93
2018-12-16T04:19:10.412Z,25.30
2018-12-16T04:21:37.865Z,24.60
2018-12-16T04:24:05.378Z,23.43
2018-12-16T04:26:32.863Z,24.93
2018-12-16T04:29:00.331Z,23.93
2018-12-16T04:31:27.804Z,24.37
2018-12-16T04:33:55.295Z,24.17
2018-12-16T04:36:22.806Z,24.23
2018-12-16T04:38:50.551Z,24.73
2018-12-16T04:41:18.001Z,23.37
2018-12-16T04:43:45.467Z,24.00
2018-12-16T04:46:12.950Z,24.27
2018-12-16T04:48:40.411Z,23.00
2018-12-16T04:51:07.898Z,24.17
2018-12-16T04:53:37.125Z,23.67
2018-12-16T04:56:04.818Z,24.53
2018-12-16T04:58:32.298Z,24.47
2018-12-16T05:00:59.755Z,24.10
2018-12-16T05:03:27.224Z,23.40
2018-12-16T05:05:54.677Z,23.67
2018-12-16T05:08:22.139Z,25.23
2018-12-16T05:10:49.592Z,25.27
2018-12-16T05:13:17.068Z,25.63
2018-12-16T05:15:44.555Z,24.70
2018-12-16T05:18:12.051Z,24.53
2018-12-16T05:20:39.530Z,24.90
2018-12-16T05:23:06.991Z,23.63
2018-12-16T05:25:34.485Z,25.70
2018-12-16T05:28:01.958Z,25.70
2018-12-16T05:30:29.408Z,25.27
2018-12-16T05:32:57.003Z,25.60
2018-12-16T05:35:24.500Z,24.77
2018-12-16T05:37:51.983Z,25.40
2018-12-16T05:40:19.505Z,24.13
2018-12-16T05:42:46.996Z,25.30
2018-12-16T05:45:14.503Z,25.57
2018-12-16T05:47:41.971Z,24.73
2018-12-16T05:50:09.455Z,25.67
2018-12-16T05:52:36.927Z,24.77
2018-12-16T05:55:04.519Z,25.00
2018-12-16T05:57:31.982Z,26.47
2018-12-16T05:59:59.473Z,24.77
2018-12-16T06:02:26.949Z,24.13
2018-12-16T06:04:54.512Z,24.97
2018-12-16T06:07:21.997Z,24.43
2018-12-16T06:09:49.464Z,25.20
2018-12-16T06:12:16.964Z,24.77
2018-12-16T06:14:44.419Z,23.63
2018-12-16T06:17:11.883Z,24.67
2018-12-16T06:19:39.368Z,25.13
2018-12-16T06:22:06.815Z,25.63
2018-12-16T06:24:34.283Z,25.93
2018-12-16T06:27:01.747Z,25.50
2018-12-16T06:29:29.240Z,25.03
2018-12-16T06:31:56.719Z,23.87
2018-12-16T06:34:24.208Z,23.93
2018-12-16T06:36:51.664Z,25.07
2018-12-16T06:39:19.119Z,25.67
2018-12-16T06:41:46.588Z,25.50
2018-12-16T06:44:14.059Z,26.47
2018-12-16T06:46:41.572Z,26.73
2018-12-16T06:49:09.078Z,25.97
2018-12-16T06:51:36.575Z,25.17
2018-12-16T06:54:04.039Z,25.87
2018-12-16T06:56:31.502Z,24.40
2018-12-16T06:58:58.983Z,24.90
2018-12-16T07:01:26.443Z,25.60
2018-12-16T07:03:53.904Z,27.30
2018-12-16T07:06:21.355Z,27.13
2018-12-16T07:08:48.827Z,26.87
2018-12-16T07:11:16.319Z,25.97
2018-12-16T07:13:43.807Z,26.27
2018-12-16T07:16:11.316Z,28.23
2018-12-16T07:18:38.791Z,26.47
2018-12-16T07:21:06.246Z,26.20
2018-12-16T07:23:33.730Z,27.17
2018-12-16T07:26:01.208Z,26.93
2018-12-16T07:28:28.773Z,27.83
2018-12-16T07:30:56.215Z,26.17
2018-12-16T07:33:23.701Z,25.90
2018-12-16T07:35:51.261Z,26.23
2018-12-16T07:38:18.814Z,27.70
2018-12-16T07:40:46.299Z,26.37
2018-12-16T07:43:13.836Z,27.77
2018-12-16T07:45:41.291Z,27.00
2018-12-16T07:48:08.818Z,26.63
2018-12-16T07:50:36.414Z,25.57
2018-12-16T07:53:03.971Z,27.47
2018-12-16T07:55:31.411Z,27.97
2018-12-16T07:57:58.872Z,28.00
2018-12-16T08:00:26.338Z,27.47
2018-12-16T08:02:53.793Z,27.60
2018-12-16T08:05:21.348Z,27.33
2018-12-16T08:07:48.902Z,28.00
2018-12-16T08:10:16.436Z,27.83
2018-12-16T08:12:43.917Z,26.57
2018-12-16T08:15:11.387Z,27.27
2018-12-16T08:17:38.867Z,28.03
2018-12-16T08:20:06.751Z,27.80
2018-12-16T08:22:34.202Z,28.80
2018-12-16T08:25:01.763Z,26.37
2018-12-16T08:27:29.239Z,27.97
2018-12-16T08:29:56.679Z,26.87
2018-12-16T08:32:24.159Z,27.40
2018-12-16T08:34:51.654Z,27.23
2018-12-16T08:37:19.100Z,26.00
2018-12-16T08:39:46.567Z,27.20
2018-12-16T08:42:14.157Z,26.33
2018-12-16T08:44:41.719Z,26.50
2018-12-16T08:47:09.202Z,28.97
2018-12-16T08:49:36.679Z,26.83
2018-12-16T08:52:06.687Z,23.10
2018-12-16T08:54:34.246Z,23.63
2018-12-16T08:57:01.690Z,22.43
2018-12-16T08:59:29.172Z,24.30
2018-12-16T09:01:56.631Z,24.43
2018-12-16T09:04:25.162Z,22.47
2018-12-16T09:06:53.423Z,23.13
2018-12-16T09:09:21.205Z,21.87
2018-12-16T09:11:48.685Z,22.30
2018-12-16T09:14:16.171Z,21.43
2018-12-16T09:16:43.688Z,23.47
2018-12-16T09:19:11.106Z,21.83
2018-12-16T09:21:39.484Z,23.10
2018-12-16T09:24:06.964Z,23.77
2018-12-16T09:26:34.465Z,20.97
2018-12-16T09:29:01.942Z,22.80
2018-12-16T09:31:29.495Z,21.03
2018-12-16T09:33:57.084Z,21.83
2018-12-16T09:36:24.568Z,21.50
2018-12-16T09:38:51.996Z,21.63
2018-12-16T09:41:19.486Z,21.93
2018-12-16T09:43:47.483Z,20.73
2018-12-16T09:46:14.953Z,20.63
2018-12-16T09:48:42.407Z,20.23
2018-12-16T09:51:09.856Z,21.37
2018-12-16T09:53:37.326Z,21.60
2018-12-16T09:56:04.864Z,21.03
2018-12-16T09:58:32.337Z,21.23
2018-12-16T10:00:59.974Z,21.50
2018-12-16T10:03:27.436Z,21.70
2018-12-16T10:05:55.606Z,19.63
2018-12-16T10:08:23.097Z,19.67
2018-12-16T10:10:51.628Z,20.87
2018-12-16T10:13:19.043Z,20.13
2018-12-16T10:15:46.572Z,18.50
2018-12-16T10:18:14.038Z,19.07
2018-12-16T10:20:41.628Z,19.40
2018-12-16T10:23:09.152Z,19.47
2018-12-16T10:25:36.704Z,20.70
2018-12-16T10:28:04.167Z,19.67
2018-12-16T10:30:32.647Z,20.50
2018-12-16T10:33:00.970Z,19.50
2018-12-16T10:35:28.455Z,26.00
2018-12-16T10:37:57.041Z,19.80
2018-12-16T10:40:24.530Z,20.10
2018-12-16T10:42:52.012Z,20.00
2018-12-16T10:45:19.579Z,20.43
2018-12-16T10:47:47.806Z,20.30
2018-12-16T10:50:15.307Z,19.67
2018-12-16T10:52:42.779Z,19.33
2018-12-16T10:55:10.272Z,21.13
2018-12-16T10:57:38.531Z,19.27
2018-12-16T11:00:12.379Z,21.53
2018-12-16T11:02:39.891Z,19.93
2018-12-16T11:05:07.449Z,19.13
2018-12-16T11:07:34.957Z,18.50
2018-12-16T11:10:02.590Z,19.20
2018-12-16T11:12:30.185Z,20.17
2018-12-16T11:14:57.744Z,19.27
2018-12-16T11:17:25.259Z,19.63
2018-12-16T11:19:53.595Z,19.53
2018-12-16T11:22:21.059Z,18.57
2018-12-16T11:24:48.538Z,18.63
2018-12-16T11:27:16.042Z,19.10
2018-12-16T11:29:43.543Z,19.43
2018-12-16T11:32:11.012Z,18.53
2018-12-16T11:34:39.393Z,18.70
2018-12-16T11:37:06.890Z,19.20
2018-12-16T11:39:34.480Z,18.50
2018-12-16T11:42:01.917Z,18.83
2018-12-16T11:44:30.087Z,18.80
2018-12-16T11:46:57.589Z,19.43
2018-12-16T11:49:25.051Z,19.57
2018-12-16T11:51:52.754Z,19.50
2018-12-16T11:54:20.220Z,19.33
2018-12-16T11:56:47.683Z,18.73
2018-12-16T11:59:17.120Z,19.97
2018-12-16T12:01:44.603Z,18.70
2018-12-16T12:04:12.111Z,18.53
2018-12-16T12:06:39.571Z,19.53
2018-12-16T12:09:07.108Z,19.20
2018-12-16T12:11:35.453Z,20.30
2018-12-16T12:14:02.952Z,22.43
2018-12-16T12:16:30.455Z,22.47
2018-12-16T12:19:00.962Z,21.03
2018-12-16T12:21:28.576Z,22.63
2018-12-16T12:23:56.096Z,21.10
2018-12-16T12:26:23.695Z,20.00
2018-12-16T12:28:51.225Z,20.80
2018-12-16T12:31:18.894Z,20.53
2018-12-16T12:33:47.010Z,20.60
2018-12-16T12:36:16.587Z,20.10
2018-12-16T12:38:44.163Z,20.90
2018-12-16T12:41:11.721Z,22.03
2018-12-16T12:43:39.408Z,19.70
2018-12-16T12:46:06.884Z,20.37
2018-12-16T12:48:35.164Z,19.53
2018-12-16T12:51:02.691Z,21.27
2018-12-16T12:53:30.228Z,21.43
2018-12-16T12:55:57.754Z,21.20
2018-12-16T12:58:25.222Z,19.77
2018-12-16T13:00:52.699Z,21.60
2018-12-16T13:03:20.162Z,21.20
2018-12-16T13:05:47.623Z,21.80
2018-12-16T13:08:15.099Z,22.20
2018-12-16T13:10:42.564Z,22.37
2018-12-16T13:13:10.101Z,22.27
2018-12-16T13:15:37.568Z,21.43
2018-12-16T13:18:05.029Z,22.53
2018-12-16T13:20:32.523Z,21.97
2018-12-16T13:23:00.526Z,21.47
2018-12-16T13:28:31.836Z,21.50
2018-12-16T13:30:59.347Z,21.13
2018-12-16T13:33:26.897Z,21.53
2018-12-16T13:35:54.395Z,21.47
2018-12-16T13:38:21.881Z,22.27
2018-12-16T13:40:49.423Z,23.60
2018-12-16T13:43:16.962Z,26.80
2018-12-16T13:45:44.439Z,21.10
2018-12-16T13:48:11.906Z,21.13
2018-12-16T13:50:39.391Z,22.67
2018-12-16T13:53:06.876Z,22.47
2018-12-16T13:55:40.619Z,22.60
2018-12-16T13:58:04.260Z,22.20
2018-12-16T14:00:31.826Z,21.60
2018-12-16T14:02:59.281Z,21.70
2018-12-16T14:05:26.876Z,21.70
2018-12-16T14:07:54.420Z,22.33
2018-12-16T14:10:21.918Z,22.57
2018-12-16T14:12:49.466Z,22.73
2018-12-16T14:15:17.020Z,22.33
2018-12-16T14:17:45.693Z,23.03
2018-12-16T14:20:13.407Z,20.57
2018-12-16T14:22:40.906Z,28.33
2018-12-16T14:25:08.476Z,24.77
2018-12-16T14:27:35.980Z,22.63
2018-12-16T14:30:06.023Z,23.57
2018-12-16T14:32:33.488Z,25.13
2018-12-16T14:35:00.983Z,27.17
2018-12-16T14:37:28.488Z,22.83
2018-12-16T14:39:56.079Z,22.50
2018-12-16T14:42:23.658Z,24.97
2018-12-16T14:44:51.141Z,24.13
2018-12-16T14:47:18.642Z,25.50
2018-12-16T14:49:46.127Z,25.30
2018-12-16T14:52:13.608Z,25.83
2018-12-16T14:54:41.148Z,24.43
2018-12-16T14:57:08.699Z,24.90
2018-12-16T14:59:36.267Z,24.40
2018-12-16T15:02:03.783Z,25.90
2018-12-16T15:04:31.276Z,25.87
2018-12-16T15:06:58.759Z,25.93
2018-12-16T15:09:26.463Z,25.20
2018-12-16T15:11:53.993Z,27.40
2018-12-16T15:14:21.478Z,26.10
2018-12-16T15:16:49.063Z,26.40
2018-12-16T15:19:16.542Z,25.80
2018-12-16T15:21:44.057Z,26.93
2018-12-16T15:24:11.605Z,26.43
2018-12-16T15:26:39.090Z,25.80
2018-12-16T15:29:06.592Z,26.93
2018-12-16T15:31:34.189Z,26.10
2018-12-16T15:34:01.651Z,26.40
2018-12-16T15:36:29.210Z,26.53
2018-12-16T15:38:56.689Z,25.03
2018-12-16T15:41:24.268Z,25.97
2018-12-16T15:43:51.755Z,25.67
2018-12-16T15:46:19.281Z,25.27
2018-12-16T15:48:46.790Z,25.73
2018-12-16T15:51:14.271Z,25.93
2018-12-16T15:53:42.035Z,24.60
2018-12-16T15:56:09.722Z,28.27
2018-12-16T15:58:37.382Z,25.40
2018-12-16T16:01:04.883Z,24.80
2018-12-16T16:03:32.346Z,25.40
2018-12-16T16:05:59.834Z,23.43
2018-12-16T16:08:27.380Z,24.10
2018-12-16T16:10:54.844Z,25.13
2018-12-16T16:13:22.367Z,23.83
2018-12-16T16:15:49.852Z,23.57
2018-12-16T16:18:17.320Z,22.90
2018-12-16T16:20:44.803Z,24.80
2018-12-16T16:23:12.907Z,25.00
2018-12-16T16:25:40.387Z,23.53
2018-12-16T16:28:07.930Z,23.30
2018-12-16T16:30:35.433Z,24.63
2018-12-16T16:33:02.955Z,23.70
2018-12-16T16:35:30.427Z,25.37
2018-12-16T16:38:00.869Z,25.63
2018-12-16T16:40:28.903Z,25.40
2018-12-16T16:42:56.388Z,24.67
2018-12-16T16:45:23.877Z,23.47
2018-12-16T16:47:51.848Z,24.30
2018-12-16T16:50:19.317Z,23.73
2018-12-16T16:52:46.820Z,26.00
2018-12-16T16:55:14.339Z,26.27
2018-12-16T16:57:41.860Z,24.70
2018-12-16T17:00:09.689Z,23.73
2018-12-16T17:02:38.203Z,25.03
2018-12-16T17:05:05.705Z,24.70
2018-12-16T17:07:33.260Z,24.87
2018-12-16T17:10:00.752Z,25.13
2018-12-16T17:12:28.244Z,23.63
2018-12-16T17:14:55.766Z,23.33
2018-12-16T17:17:23.246Z,23.60
2018-12-16T17:19:50.695Z,24.53
2018-12-16T17:22:20.151Z,22.40
2018-12-16T17:24:47.687Z,24.07
2018-12-16T17:27:15.151Z,24.13
2018-12-16T17:29:42.648Z,23.40
2018-12-16T17:32:10.128Z,23.73
2018-12-16T17:34:37.662Z,23.70
2018-12-16T17:37:05.186Z,24.93
2018-12-16T17:39:32.704Z,24.13
2018-12-16T17:42:00.184Z,23.53
2018-12-16T17:44:27.670Z,24.40
2018-12-16T17:46:55.187Z,24.87
2018-12-16T17:49:22.759Z,24.07
2018-12-16T17:51:50.383Z,23.53
2018-12-16T17:54:17.951Z,24.63
2018-12-16T17:56:45.452Z,24.80
2018-12-16T17:59:17.901Z,24.00
2018-12-16T18:01:42.795Z,25.07
2018-12-16T18:04:10.391Z,24.17
2018-12-16T18:06:37.911Z,24.27
2018-12-16T18:09:06.442Z,26.20
2018-12-16T18:11:33.895Z,24.63
2018-12-16T18:14:01.420Z,24.23
2018-12-16T18:16:28.899Z,25.10
2018-12-16T18:18:56.373Z,24.57
2018-12-16T18:21:23.883Z,24.13
2018-12-16T18:23:51.390Z,24.37
2018-12-16T18:26:18.903Z,25.80
2018-12-16T18:28:46.368Z,25.10
2018-12-16T18:31:13.855Z,24.93
2018-12-16T18:33:41.363Z,24.93
2018-12-16T18:36:08.848Z,25.30
2018-12-16T18:38:36.330Z,25.63
2018-12-16T18:41:03.834Z,24.20
2018-12-16T18:43:31.351Z,25.73
2018-12-16T18:45:58.840Z,24.73
2018-12-16T18:48:26.306Z,24.30
2018-12-16T18:50:53.783Z,25.23
2018-12-16T18:53:21.959Z,24.87
2018-12-16T18:55:49.455Z,25.33
2018-12-16T18:58:16.931Z,24.93
2018-12-16T19:00:44.514Z,24.00
2018-12-16T19:03:12.048Z,23.57
2018-12-16T19:05:39.516Z,24.80
2018-12-16T19:08:07.094Z,25.37
2018-12-16T19:10:34.563Z,24.83
2018-12-16T19:13:02.032Z,25.67
2018-12-16T19:15:29.574Z,24.37
2018-12-16T19:17:57.044Z,25.80
2018-12-16T19:20:24.720Z,25.33
2018-12-16T19:22:52.195Z,27.03
2018-12-16T19:25:19.720Z,25.73
2018-12-16T19:27:47.223Z,25.47
2018-12-16T19:30:14.764Z,24.03
2018-12-16T19:32:42.246Z,24.63
2018-12-16T19:35:09.789Z,25.47
2018-12-16T19:37:37.253Z,24.73
2018-12-16T19:40:05.071Z,24.13
2018-12-16T19:42:32.552Z,26.60
2018-12-16T19:45:00.029Z,26.53
2018-12-16T19:47:27.506Z,25.90
2018-12-16T19:49:54.947Z,24.93
2018-12-16T19:52:22.560Z,26.10
2018-12-16T19:54:50.812Z,24.63
2018-12-16T19:57:18.352Z,27.13
2018-12-16T19:59:45.937Z,24.90
2018-12-16T20:02:13.429Z,26.77
2018-12-16T20:04:45.288Z,26.17
2018-12-16T20:07:12.857Z,27.83
2018-12-16T20:09:40.299Z,26.57
2018-12-16T20:12:07.857Z,26.20
2018-12-16T20:14:35.362Z,26.73
2018-12-16T20:17:02.911Z,26.77
2018-12-16T20:19:30.388Z,26.70
2018-12-16T20:21:57.873Z,27.10
2018-12-16T20:24:26.164Z,27.17
2018-12-16T20:26:53.907Z,27.70
2018-12-16T20:29:21.495Z,26.63
2018-12-16T20:31:49.022Z,27.40
2018-12-16T20:34:16.492Z,26.73
2018-12-16T20:36:43.999Z,25.67
2018-12-16T20:39:11.463Z,25.77
2018-12-16T20:41:39.901Z,27.33
2018-12-16T20:44:07.418Z,27.03
2018-12-16T20:46:34.918Z,25.93
2018-12-16T20:49:02.448Z,27.00
2018-12-16T20:51:29.963Z,27.90
2018-12-16T20:53:57.482Z,27.13
2018-12-16T20:56:25.019Z,26.80
2018-12-16T20:58:54.262Z,27.50
2018-12-16T21:01:21.787Z,27.10
2018-12-16T21:03:49.281Z,28.30
2018-12-16T21:06:16.743Z,28.43
2018-12-16T21:08:44.258Z,28.70
2018-12-16T21:11:17.517Z,27.93
2018-12-16T21:13:50.753Z,26.97
2018-12-16T21:16:23.951Z,27.53
2018-12-16T21:18:51.447Z,25.97
2018-12-16T21:21:18.943Z,28.97
2018-12-16T21:23:46.422Z,27.27
2018-12-16T21:26:13.919Z,26.17
2018-12-16T21:28:41.394Z,29.37
2018-12-16T21:31:08.855Z,29.07
2018-12-16T21:33:36.354Z,28.67
2018-12-16T21:36:03.859Z,27.77
2018-12-16T21:38:31.368Z,28.40
2018-12-16T21:40:59.050Z,27.13
2018-12-16T21:43:26.536Z,27.67
2018-12-16T21:45:54.007Z,27.70
2018-12-16T21:48:21.499Z,28.27
2018-12-16T21:50:48.971Z,27.10
2018-12-16T21:53:16.438Z,27.50
2018-12-16T21:55:43.898Z,28.67
2018-12-16T21:58:11.375Z,26.60
2018-12-16T22:00:38.871Z,27.97
2018-12-16T22:03:06.354Z,27.63
2018-12-16T22:05:33.827Z,28.67
2018-12-16T22:08:01.398Z,26.77
2018-12-16T22:10:28.998Z,26.80
2018-12-16T22:12:56.499Z,28.47
2018-12-16T22:15:23.979Z,28.20
2018-12-16T22:17:51.452Z,27.90
2018-12-16T22:20:18.907Z,26.93
2018-12-16T22:22:46.367Z,28.10
2018-12-16T22:25:13.837Z,26.43
2018-12-16T22:27:41.295Z,27.70
2018-12-16T22:30:09.002Z,27.87
2018-12-16T22:32:36.502Z,27.67
2018-12-16T22:35:04.178Z,26.50
2018-12-16T22:37:31.682Z,29.37
2018-12-16T22:39:59.166Z,28.17
2018-12-16T22:42:26.633Z,27.47
2018-12-16T22:44:54.099Z,27.57
2018-12-16T22:47:21.563Z,26.37
2018-12-16T22:49:48.999Z,27.23
2018-12-16T22:52:16.499Z,28.47
2018-12-16T22:54:43.963Z,26.90
2018-12-16T22:57:11.442Z,28.50
2018-12-16T22:59:38.904Z,27.50
2018-12-16T23:02:06.371Z,27.83
2018-12-16T23:04:33.872Z,27.00
2018-12-16T23:07:01.327Z,27.47
2018-12-16T23:09:28.811Z,26.93
2018-12-16T23:11:56.270Z,28.37
2018-12-16T23:14:23.776Z,27.17
2018-12-16T23:16:51.307Z,28.33
2018-12-16T23:19:18.868Z,27.33
2018-12-16T23:21:46.327Z,27.03
2018-12-16T23:24:13.839Z,30.30
2018-12-16T23:26:41.311Z,28.03
2018-12-16T23:29:08.807Z,27.30
2018-12-16T23:31:36.298Z,27.30
2018-12-16T23:34:03.792Z,27.50
2018-12-16T23:36:31.279Z,26.97
2018-12-16T23:38:58.756Z,29.00
2018-12-16T23:41:26.223Z,28.07
2018-12-16T23:43:53.723Z,28.33
2018-12-16T23:46:21.167Z,28.80
2018-12-16T23:48:48.697Z,28.83
2018-12-16T23:51:16.195Z,27.63
2018-12-16T23:53:43.659Z,27.93
2018-12-16T23:56:11.119Z,27.60
2018-12-16T23:58:38.597Z,28.20
